Kimballton, Iowa
Current Conditions -  °F | °C
As of 6:55 PM on Sunday 23 Nov 2014 (Local Time) from KADU Reporting Station
Clear Clear  
Wind Chill: 30°   Ceiling: Unl
Heat Index: 39°   Visibility: 10mi
Dew Point: 34°   Wind: 18mph
Humidity: 81%   Direction: 320°NW
Pressure: 29.47"   Gusts: 23mph
Location:  41.63°N, 95.07°W
Report Text: KADU 240055Z AUTO 32016G20KT 10SM CLR 04/01 A2947 RMK AO2
Loading
Personal Weather Stations






























Interactive Weather Map New forecast layout! Learn more

10-Day Weather Forecast

Advertisements
Track Severe Weather on mobile